| time (UTC) | temp C | wind direction | speed KPH | gust KPH | rain 1hr cm | rain 24hr cm | rain mn cm | humidity % | barometer mb |
| 20260503212045 | 15 | 0.0 | 0.0 | 0.00 | 0.00 | 0.00 | 61 | 1019.8 | |
| 20260503211033 | 16 | 0.0 | 0.0 | 0.00 | 0.00 | 0.00 | 61 | 1019.8 | |
| 20260503210023 | 16 | 0.0 | 0.0 | 0.00 | 0.00 | 0.00 | 61 | 1019.6 | |
| 20260503205019 | 16 | 0.0 | 0.0 | 0.00 | 0.00 | 0.00 | 61 | 1019.4 | |
| 20260503204017 | 16 | 0.0 | 0.0 | 0.00 | 0.00 | 0.00 | 61 | 1019.3 | |
| 20260503203037 | 16 | 0.0 | 0.0 | 0.00 | 0.00 | 0.00 | 60 | 1019.2 | |
| 20260503202032 | 16 | 0.0 | 0.0 | 0.00 | 0.00 | 0.00 | 60 | 1019.2 | |
| 20260503201026 | 17 | 0.0 | 0.0 | 0.00 | 0.00 | 0.00 | 59 | 1019.3 | |
| 20260503200109 | 17 | 0.0 | 0.0 | 0.00 | 0.00 | 0.00 | 59 | 1019.4 | |
| 20260503195038 | 17 | 0.0 | 0.0 | 0.00 | 0.00 | 0.00 | 58 | 1019.3 | |
| 20260503194034 | 17 | 0.0 | 0.0 | 0.00 | 0.00 | 0.00 | 58 | 1019.1 | |
| 20260503193027 | 17 | 0.0 | 0.0 | 0.00 | 0.00 | 0.00 | 58 | 1019.0 | |
| 20260503192022 | 17 | 0.0 | 0.0 | 0.00 | 0.00 | 0.00 | 57 | 1018.8 | |
| 20260503191020 | 17 | 0.0 | 0.0 | 0.00 | 0.00 | 0.00 | 57 | 1018.7 | |
| 20260503190046 | 18 | 0.0 | 0.0 | 0.00 | 0.00 | 0.00 | 56 | 1018.6 | |
| 20260503185038 | 18 | 0.0 | 0.0 | 0.00 | 0.00 | 0.00 | 55 | 1018.5 | |
| 20260503184031 | 18 | 90 | 1.6 | 1.6 | 0.00 | 0.00 | 0.00 | 54 | 1018.3 |
| 20260503183029 | 18 | 45 | 1.6 | 3.2 | 0.00 | 0.00 | 0.00 | 53 | 1018.3 |
| 20260503182020 | 18 | 0.0 | 0.0 | 0.00 | 0.00 | 0.00 | 51 | 1018.2 | |
| 20260503181047 | 19 | 0.0 | 0.0 | 0.00 | 0.00 | 0.00 | 50 | 1018.2 | |
| 20260503180043 | 20 | 0.0 | 0.0 | 0.00 | 0.00 | 0.00 | 49 | 1018.2 | |
| 20260503175101 | 20 | 0.0 | 0.0 | 0.00 | 0.00 | 0.00 | 48 | 1018.1 | |
| 20260503174053 | 20 | 0.0 | 0.0 | 0.00 | 0.00 | 0.00 | 48 | 1018.2 | |
| 20260503173709 | 20 | 0.0 | 0.0 | 0.00 | 0.00 | 0.00 | 47 | 1018.1 | |
| 20260503172028 | 21 | 0.0 | 0.0 | 0.00 | 0.00 | 0.00 | 46 | 1017.9 | |
| 20260503171500 | 21 | 0.0 | 0.0 | 0.00 | 0.00 | 0.00 | 46 | 1017.8 | |
| 20260503150521 | -17 | 0.0 | 0.0 | 0.00 | 0.00 | 0.00 | 1018.5 | ||
| 20260503130545 | -17 | 0.0 | 0.0 | 0.00 | 0.00 | 0.00 | 1019.8 | ||
| 20260503110548 | -17 | 0.0 | 0.0 | 0.00 | 0.00 | 0.00 | 1020.4 | ||
| 20260503081522 | -17 | 0.0 | 0.0 | 0.00 | 0.00 | 0.00 | 1021.8 | ||
| 20260503080545 | 17 | 0.0 | 0.0 | 0.00 | 0.00 | 0.00 | 59 | 1021.9 | |
| 20260503072546 | -17 | 0.0 | 0.0 | 0.00 | 0.00 | 0.00 | 61 | 1022.2 | |
| 20260503071518 | -17 | 0.0 | 0.0 | 0.00 | 0.00 | 0.00 | 1022.3 | ||
| 20260503070534 | -17 | 0.0 | 0.0 | 0.00 | 0.00 | 0.00 | 1022.2 | ||
| 20260503054617 | 11 | 0.0 | 0.0 | 0.00 | 0.00 | 0.00 | 71 | 1022.0 | |
| 20260503053535 | 11 | 0.0 | 0.0 | 0.00 | 0.00 | 0.00 | 71 | 1022.0 | |
| 20260503052614 | 11 | 0.0 | 0.0 | 0.00 | 0.00 | 0.00 | 71 | 1022.0 | |
| 20260503051535 | 9 | 0.0 | 0.0 | 0.00 | 0.00 | 0.00 | 73 | 1022.0 | |
| 20260503050520 | 8 | 0.0 | 0.0 | 0.00 | 0.00 | 0.00 | 73 | 1021.9 | |
| 20260503045534 | -17 | 0.0 | 0.0 | 0.00 | 0.00 | 0.00 | 1021.9 | ||
| 20260503044550 | -17 | 0.0 | 0.0 | 0.00 | 0.00 | 0.00 | 1021.8 | ||
| 20260503043607 | -17 | 0.0 | 0.0 | 0.00 | 0.00 | 0.00 | 1021.9 | ||
| 20260503042544 | -17 | 0.0 | 0.0 | 0.00 | 0.00 | 0.00 | 1021.8 | ||
| 20260503041544 | 8 | 0.0 | 0.0 | 0.00 | 0.00 | 0.00 | 70 | 1021.7 | |
| 20260503040520 | 8 | 0.0 | 0.0 | 0.00 | 0.00 | 0.00 | 70 | 1021.7 | |
| 20260503035522 | 8 | 0.0 | 0.0 | 0.00 | 0.00 | 0.00 | 70 | 1021.6 | |
| 20260503034543 | -17 | 0.0 | 0.0 | 0.00 | 0.00 | 0.00 | 1021.6 | ||
| 20260503033540 | -17 | 0.0 | 0.0 | 0.00 | 0.00 | 0.00 | 1021.6 | ||
| 20260503032542 | -17 | 0.0 | 0.0 | 0.00 | 0.00 | 0.00 | 1021.6 | ||
| 20260503031558 | -17 | 0.0 | 0.0 | 0.00 | 0.00 | 0.00 | 1021.6 | ||
| 20260503030614 | 9 | 0.0 | 0.0 | 0.00 | 0.00 | 0.00 | 1021.4 | ||
| 20260503025527 | 9 | 0.0 | 0.0 | 0.00 | 0.00 | 0.00 | 1021.6 | ||
| 20260503024625 | -17 | 0.0 | 0.0 | 0.00 | 0.00 | 0.00 | 1021.5 | ||
| 20260503023541 | -17 | 0.0 | 0.0 | 0.00 | 0.00 | 0.00 | 1021.5 | ||
| 20260503022537 | 10 | 0.0 | 0.0 | 0.00 | 0.00 | 0.00 | 66 | 1021.6 | |
| 20260503021602 | -17 | 0.0 | 0.0 | 0.00 | 0.00 | 0.00 | 66 | 1021.6 | |
| 20260503020556 | -17 | 0.0 | 0.0 | 0.00 | 0.00 | 0.00 | 1021.6 | ||
| 20260503015519 | -17 | 0.0 | 0.0 | 0.00 | 0.00 | 0.00 | 1021.6 | ||
| 20260503014557 | -17 | 0.0 | 0.0 | 0.00 | 0.00 | 0.00 | 1021.6 | ||
| 20260503013548 | -17 | 0.0 | 0.0 | 0.00 | 0.00 | 0.00 | 1021.6 | ||
| 20260503012540 | 10 | 0.0 | 0.0 | 0.00 | 0.00 | 0.00 | 63 | 1021.8 | |
| 20260503011541 | 10 | 0.0 | 0.0 | 0.00 | 0.00 | 0.00 | 63 | 1021.8 | |
| 20260503010526 | 11 | 0.0 | 0.0 | 0.00 | 0.00 | 0.00 | 63 | 1021.9 | |
| 20260503005612 | -17 | 0.0 | 0.0 | 0.00 | 0.00 | 0.00 | 1021.9 | ||
| 20260503004542 | -17 | 0.0 | 0.0 | 0.00 | 0.00 | 0.00 | 1022.0 | ||
| 20260503003602 | -17 | 0.0 | 0.0 | 0.00 | 0.00 | 0.00 | 1022.0 | ||
| 20260503002625 | -17 | 0.0 | 0.0 | 0.00 | 0.00 | 0.00 | 1022.1 | ||
| 20260503001528 | 11 | 0.0 | 0.0 | 0.00 | 0.00 | 0.00 | 62 | 1022.1 | |
| 20260503000525 | 11 | 0.0 | 0.0 | 0.00 | 0.00 | 0.00 | 62 | 1022.1 | |
| 20260503000017 | 11 | 0.0 | 0.0 | 0.00 | 0.00 | 0.00 | 62 | 1022.0 | |
| 20260502235028 | 11 | 0.0 | 0.0 | 0.00 | 0.00 | 0.00 | 1022.1 | ||
| 20260502234110 | 11 | 0.0 | 0.0 | 0.00 | 0.00 | 0.00 | 61 | 1022.2 | |
| 20260502233035 | 11 | 0.0 | 0.0 | 0.00 | 0.00 | 0.00 | 61 | 1022.3 | |
| 20260502232051 | -17 | 0.0 | 0.0 | 0.00 | 0.00 | 0.00 | 60 | 1022.3 | |
| 20260502231048 | 11 | 0.0 | 0.0 | 0.00 | 0.00 | 0.00 | 58 | 1022.3 | |
| 20260502230042 | 11 | 0.0 | 0.0 | 0.00 | 0.00 | 0.00 | 58 | 1022.3 | |
| 20260502225043 | 11 | 0.0 | 0.0 | 0.00 | 0.00 | 0.00 | 58 | 1022.3 | |
| 20260502224108 | -17 | 0.0 | 0.0 | 0.00 | 0.00 | 0.00 | 58 | 1022.3 | |
| 20260502223026 | -17 | 0.0 | 0.0 | 0.00 | 0.00 | 0.00 | 58 | 1022.3 | |
| 20260502222021 | -17 | 0.0 | 0.0 | 0.00 | 0.00 | 0.00 | 1022.3 | ||
| 20260502221113 | 12 | 0.0 | 0.0 | 0.00 | 0.00 | 0.00 | 55 | 1022.3 | |
| 20260502220022 | 13 | 0.0 | 0.0 | 0.00 | 0.00 | 0.00 | 1022.3 | ||
| 20260502215055 | -17 | 0.0 | 0.0 | 0.00 | 0.00 | 0.00 | 1022.3 | ||
| 20260502214118 | -17 | 0.0 | 0.0 | 0.00 | 0.00 | 0.00 | 1022.2 | ||
| 20260502213037 | -17 | 0.0 | 0.0 | 0.00 | 0.00 | 0.00 | 1022.0 |